createdAt,value
2019-02-20T00:01:31.657Z,12.65
2019-02-20T00:04:00.715Z,13.30
2019-02-20T00:06:29.099Z,13.67
2019-02-20T00:08:57.529Z,13.50
2019-02-20T00:11:26.670Z,14.02
2019-02-20T00:13:54.928Z,14.07
2019-02-20T00:16:23.257Z,13.15
2019-02-20T00:18:52.310Z,13.38
2019-02-20T00:21:20.682Z,13.25
2019-02-20T00:23:49.059Z,14.30
2019-02-20T00:26:17.345Z,14.68
2019-02-20T00:28:45.753Z,14.23
2019-02-20T00:31:14.132Z,14.60
2019-02-20T00:33:42.415Z,14.70
2019-02-20T00:36:11.474Z,15.45
2019-02-20T00:38:39.774Z,14.00
2019-02-20T00:41:08.064Z,13.73
2019-02-20T00:43:36.338Z,13.20
2019-02-20T00:46:07.091Z,13.62
2019-02-20T00:48:39.911Z,12.60
2019-02-20T00:51:08.828Z,13.48
2019-02-20T00:53:41.482Z,13.30
2019-02-20T00:56:09.855Z,13.62
2019-02-20T00:58:38.155Z,13.35
2019-02-20T01:01:06.507Z,13.18
2019-02-20T01:03:34.802Z,12.90
2019-02-20T01:06:04.904Z,13.43
2019-02-20T01:08:31.479Z,13.18
2019-02-20T01:10:59.823Z,13.98
2019-02-20T01:13:28.121Z,13.65
2019-02-20T01:15:56.505Z,13.30
2019-02-20T01:18:25.569Z,13.60
2019-02-20T01:20:53.939Z,13.25
2019-02-20T01:23:22.310Z,13.32
2019-02-20T01:25:50.704Z,14.05
2019-02-20T01:28:19.015Z,13.70
2019-02-20T01:30:48.123Z,14.00
2019-02-20T01:33:16.648Z,13.75
2019-02-20T01:35:44.866Z,13.02
2019-02-20T01:38:14.024Z,13.38
2019-02-20T01:40:42.332Z,13.50
2019-02-20T01:43:10.676Z,13.70
2019-02-20T01:45:39.035Z,13.90
2019-02-20T01:48:07.540Z,14.07
2019-02-20T01:50:35.814Z,13.57
2019-02-20T01:53:10.383Z,13.77
2019-02-20T01:55:32.492Z,13.68
2019-02-20T01:58:00.742Z,13.80
2019-02-20T02:00:29.035Z,13.48
2019-02-20T02:02:57.363Z,13.43
2019-02-20T02:05:26.526Z,14.20
2019-02-20T02:07:54.858Z,13.45
2019-02-20T02:10:23.159Z,14.23
2019-02-20T02:12:51.542Z,13.88
2019-02-20T02:15:20.723Z,13.85
2019-02-20T02:17:48.171Z,13.73
2019-02-20T02:20:17.295Z,14.02
2019-02-20T02:22:46.355Z,13.93
2019-02-20T02:25:14.729Z,13.75
2019-02-20T02:27:43.123Z,13.88
2019-02-20T02:30:11.496Z,14.23
2019-02-20T02:32:39.870Z,13.60
2019-02-20T02:35:08.249Z,13.75
2019-02-20T02:37:36.660Z,13.93
2019-02-20T02:40:05.040Z,13.13
2019-02-20T02:42:33.371Z,13.45
2019-02-20T02:45:01.837Z,13.68
2019-02-20T02:47:30.168Z,13.70
2019-02-20T02:49:59.266Z,13.88
2019-02-20T02:52:27.566Z,12.65
2019-02-20T02:54:55.893Z,12.75
2019-02-20T02:57:24.186Z,12.63
2019-02-20T02:59:53.245Z,13.18
2019-02-20T03:02:21.628Z,13.30
2019-02-20T03:04:49.987Z,13.90
2019-02-20T03:07:18.268Z,14.07
2019-02-20T03:09:46.656Z,14.20
2019-02-20T03:12:14.990Z,13.75
2019-02-20T03:14:43.347Z,13.82
2019-02-20T03:17:11.637Z,13.93
2019-02-20T03:19:39.958Z,14.32
2019-02-20T03:22:08.247Z,14.10
2019-02-20T03:24:36.558Z,14.48
2019-02-20T03:27:05.842Z,14.43
2019-02-20T03:29:34.190Z,14.90
2019-02-20T03:32:02.494Z,14.77
2019-02-20T03:34:30.763Z,14.57
2019-02-20T03:36:59.106Z,15.15
2019-02-20T03:39:27.487Z,14.93
2019-02-20T03:41:55.786Z,14.95
2019-02-20T03:44:24.091Z,14.70
2019-02-20T03:46:53.254Z,14.73
2019-02-20T03:49:21.569Z,15.10
2019-02-20T03:51:50.715Z,14.63
2019-02-20T03:54:19.012Z,14.07
2019-02-20T03:56:47.328Z,14.43
2019-02-20T03:59:15.664Z,13.48
2019-02-20T04:01:43.965Z,14.15
2019-02-20T04:04:13.119Z,14.02
2019-02-20T04:06:41.540Z,14.13
2019-02-20T04:09:09.768Z,14.37
2019-02-20T04:11:38.149Z,14.20
2019-02-20T04:14:06.423Z,14.23
2019-02-20T04:16:34.711Z,13.85
2019-02-20T04:19:03.004Z,15.35
2019-02-20T04:21:32.067Z,15.52
2019-02-20T04:24:02.893Z,15.35
2019-02-20T04:26:29.127Z,16.40
2019-02-20T04:28:57.420Z,15.48
2019-02-20T04:31:25.780Z,15.48
2019-02-20T04:33:54.155Z,15.15
2019-02-20T04:36:22.569Z,15.27
2019-02-20T04:38:50.863Z,18.25
2019-02-20T04:41:19.902Z,17.92
2019-02-20T04:43:48.244Z,17.98
2019-02-20T04:46:16.552Z,21.17
2019-02-20T04:48:44.891Z,20.52
2019-02-20T04:51:13.211Z,20.62
2019-02-20T04:53:41.502Z,18.87
2019-02-20T04:56:09.825Z,20.58
2019-02-20T04:58:38.107Z,19.52
2019-02-20T05:01:06.436Z,16.67
2019-02-20T05:03:34.741Z,16.15
2019-02-20T05:06:03.100Z,16.48
2019-02-20T05:08:31.449Z,15.27
2019-02-20T05:10:59.822Z,16.73
2019-02-20T05:13:28.115Z,15.50
2019-02-20T05:15:56.506Z,15.90
2019-02-20T05:18:24.851Z,15.63
2019-02-20T05:20:53.263Z,15.50
2019-02-20T05:23:21.611Z,15.43
2019-02-20T05:25:49.922Z,15.68
2019-02-20T05:28:18.313Z,16.08
2019-02-20T05:30:46.664Z,15.85
2019-02-20T05:33:14.927Z,15.55
2019-02-20T05:35:43.331Z,15.75
2019-02-20T05:38:11.649Z,15.68
2019-02-20T05:40:39.937Z,15.57
2019-02-20T05:43:08.211Z,15.13
2019-02-20T05:45:49.039Z,15.35
2019-02-20T05:48:17.372Z,16.17
2019-02-20T05:50:45.653Z,15.57
2019-02-20T05:53:13.944Z,16.23
2019-02-20T05:55:42.192Z,15.80
2019-02-20T05:58:10.522Z,15.65
2019-02-20T06:00:39.559Z,16.10
2019-02-20T06:03:07.847Z,16.52
2019-02-20T06:05:36.339Z,15.85
2019-02-20T06:08:04.805Z,15.80
2019-02-20T06:10:33.208Z,15.90
2019-02-20T06:13:01.472Z,15.97
2019-02-20T06:15:29.722Z,16.42
2019-02-20T06:17:58.071Z,16.00
2019-02-20T06:20:26.382Z,16.15
2019-02-20T06:22:54.668Z,15.27
2019-02-20T06:25:22.991Z,15.55
2019-02-20T06:27:52.018Z,16.12
2019-02-20T06:30:20.295Z,15.82
2019-02-20T06:32:48.674Z,16.05
2019-02-20T06:35:16.963Z,14.95
2019-02-20T06:37:45.331Z,16.25
2019-02-20T06:40:13.710Z,16.17
2019-02-20T06:42:42.047Z,15.73
2019-02-20T06:45:11.082Z,16.17
2019-02-20T06:47:39.399Z,15.25
2019-02-20T06:50:08.565Z,14.87
2019-02-20T06:52:36.847Z,14.02
2019-02-20T06:55:06.024Z,14.57
2019-02-20T06:57:34.282Z,14.63
2019-02-20T07:00:02.666Z,14.55
2019-02-20T07:02:31.002Z,14.55
2019-02-20T07:05:11.313Z,14.95
2019-02-20T07:07:41.256Z,14.95
2019-02-20T07:10:21.474Z,15.13
2019-02-20T07:12:49.855Z,15.32
2019-02-20T07:18:25.979Z,16.10
2019-02-20T07:21:14.731Z,15.88
2019-02-20T07:23:47.575Z,16.25
2019-02-20T07:26:21.860Z,16.42
2019-02-20T07:28:56.606Z,16.42
2019-02-20T07:31:24.991Z,18.10
2019-02-20T07:33:53.266Z,17.30
2019-02-20T07:36:21.649Z,14.68
2019-02-20T07:38:49.926Z,15.40
2019-02-20T07:41:18.328Z,15.18
2019-02-20T07:43:46.675Z,15.30
2019-02-20T07:46:15.365Z,15.55
2019-02-20T07:48:43.639Z,16.08
2019-02-20T07:51:12.017Z,15.85
2019-02-20T07:53:40.382Z,16.98
2019-02-20T07:56:08.683Z,16.65
2019-02-20T07:58:37.077Z,15.98
2019-02-20T08:01:05.382Z,15.43
2019-02-20T08:03:33.693Z,15.88
2019-02-20T08:06:02.021Z,16.08
2019-02-20T08:08:31.110Z,16.77
2019-02-20T08:11:00.349Z,16.67
2019-02-20T08:13:28.653Z,16.15
2019-02-20T08:15:56.973Z,14.98
2019-02-20T08:18:25.295Z,14.53
2019-02-20T08:20:53.566Z,14.40
2019-02-20T08:23:21.943Z,14.13
2019-02-20T08:25:50.235Z,13.93
2019-02-20T08:28:18.632Z,13.57
2019-02-20T08:30:46.988Z,14.57
2019-02-20T08:33:15.367Z,13.40
2019-02-20T08:35:43.669Z,12.85
2019-02-20T08:38:12.747Z,12.85
2019-02-20T08:40:41.145Z,12.50
2019-02-20T08:43:10.203Z,12.23
2019-02-20T08:45:38.505Z,11.90
2019-02-20T08:48:06.767Z,10.53
2019-02-20T08:50:35.020Z,10.45
2019-02-20T08:53:03.399Z,10.30
2019-02-20T08:55:32.517Z,10.85
2019-02-20T08:58:00.191Z,10.98
2019-02-20T09:00:28.509Z,11.27
2019-02-20T09:02:56.808Z,9.75
2019-02-20T09:05:25.237Z,9.43
2019-02-20T09:07:54.317Z,9.07
2019-02-20T09:10:23.358Z,10.55
2019-02-20T09:12:51.645Z,11.27
2019-02-20T09:15:20.044Z,11.98
2019-02-20T09:17:48.334Z,11.05
2019-02-20T09:20:17.378Z,10.65
2019-02-20T09:22:45.702Z,10.02
2019-02-20T09:25:19.770Z,10.10
2019-02-20T09:27:43.898Z,10.50
2019-02-20T09:30:12.952Z,12.10
2019-02-20T09:32:41.252Z,11.00
2019-02-20T09:35:11.148Z,10.15
2019-02-20T09:37:39.440Z,11.25
2019-02-20T09:40:17.875Z,11.30
2019-02-20T09:42:46.938Z,10.70
2019-02-20T09:45:15.318Z,10.85
2019-02-20T09:47:43.619Z,10.95
2019-02-20T09:50:11.908Z,10.63
2019-02-20T09:52:40.203Z,10.00
2019-02-20T09:55:08.519Z,10.55
2019-02-20T09:57:36.887Z,9.75
2019-02-20T10:00:14.080Z,9.90
2019-02-20T10:02:42.451Z,10.68
2019-02-20T10:05:10.726Z,10.00
2019-02-20T10:07:39.049Z,10.18
2019-02-20T10:10:09.116Z,10.30
2019-02-20T10:12:37.415Z,10.98
2019-02-20T10:15:07.113Z,11.53
2019-02-20T10:17:35.410Z,12.68
2019-02-20T10:20:04.008Z,12.98
2019-02-20T10:22:32.243Z,12.10
2019-02-20T10:25:00.618Z,11.90
2019-02-20T10:27:28.953Z,11.95
2019-02-20T10:29:57.249Z,10.80
2019-02-20T10:32:25.643Z,9.98
2019-02-20T10:34:54.028Z,8.98
2019-02-20T10:37:22.407Z,8.70
2019-02-20T10:39:50.672Z,9.40
2019-02-20T10:42:18.990Z,9.07
2019-02-20T10:44:48.157Z,9.30
2019-02-20T10:47:16.451Z,9.10
2019-02-20T10:49:44.719Z,9.35
2019-02-20T10:52:13.004Z,9.27
2019-02-20T10:54:42.075Z,9.23
2019-02-20T10:57:10.361Z,10.03
2019-02-20T10:59:38.682Z,9.38
2019-02-20T11:02:06.973Z,8.43
2019-02-20T11:04:35.403Z,8.45
2019-02-20T11:07:03.693Z,7.70
2019-02-20T11:09:32.002Z,7.90
2019-02-20T11:12:00.248Z,7.90
2019-02-20T11:14:29.353Z,8.45
2019-02-20T11:16:57.677Z,9.25
2019-02-20T11:19:25.941Z,10.10
2019-02-20T11:21:54.361Z,9.75
2019-02-20T11:24:23.403Z,10.00
2019-02-20T11:26:54.999Z,9.40
2019-02-20T11:29:20.808Z,9.20
2019-02-20T11:31:49.137Z,8.98
2019-02-20T11:34:17.461Z,8.18
2019-02-20T11:36:45.734Z,8.13
2019-02-20T11:39:15.631Z,8.23
2019-02-20T11:41:43.927Z,7.85
2019-02-20T11:44:20.843Z,7.90
2019-02-20T11:46:42.059Z,7.20
2019-02-20T11:49:10.517Z,7.40
2019-02-20T11:51:38.831Z,8.00
2019-02-20T11:54:07.115Z,7.43
2019-02-20T11:56:35.532Z,7.97
2019-02-20T11:59:03.817Z,6.60
2019-02-20T12:01:32.867Z,6.37
2019-02-20T12:04:01.151Z,6.80
2019-02-20T12:06:29.523Z,6.97
2019-02-20T12:08:57.833Z,6.80
2019-02-20T12:11:26.092Z,6.47
2019-02-20T12:13:54.383Z,6.43
2019-02-20T12:16:22.735Z,6.65
2019-02-20T12:18:50.998Z,6.33
2019-02-20T12:21:19.292Z,6.50
2019-02-20T12:23:47.935Z,6.30
2019-02-20T12:26:16.240Z,6.53
2019-02-20T12:28:44.544Z,6.70
2019-02-20T12:31:12.891Z,7.07
2019-02-20T12:33:41.272Z,6.85
2019-02-20T12:36:09.683Z,6.85
2019-02-20T12:38:37.969Z,7.45
2019-02-20T12:41:07.082Z,7.30
2019-02-20T12:43:36.217Z,7.45
2019-02-20T12:46:05.839Z,6.90
2019-02-20T12:48:34.229Z,7.05
2019-02-20T12:51:02.599Z,6.60
2019-02-20T12:53:30.883Z,6.28
2019-02-20T12:56:00.703Z,6.68
2019-02-20T12:58:29.855Z,7.30
2019-02-20T13:00:58.169Z,6.50
2019-02-20T13:03:26.527Z,6.35
2019-02-20T13:05:54.796Z,6.60
2019-02-20T13:08:23.175Z,6.22
2019-02-20T13:10:51.555Z,6.43
2019-02-20T13:13:19.936Z,6.95
2019-02-20T13:15:48.196Z,7.33
2019-02-20T13:18:16.564Z,6.95
2019-02-20T13:20:45.702Z,7.12
2019-02-20T13:23:14.033Z,7.90
2019-02-20T13:25:42.330Z,7.72
2019-02-20T13:28:10.642Z,8.18
2019-02-20T13:30:39.903Z,7.47
2019-02-20T13:33:09.242Z,8.13
2019-02-20T13:35:37.502Z,8.57
2019-02-20T13:38:05.824Z,8.30
2019-02-20T13:40:34.100Z,8.82
2019-02-20T13:43:02.385Z,9.02
2019-02-20T13:45:30.703Z,9.20
2019-02-20T13:47:59.789Z,9.43
2019-02-20T13:50:28.148Z,9.73
2019-02-20T13:52:56.443Z,9.70
2019-02-20T13:55:34.070Z,9.10
2019-02-20T13:57:53.071Z,8.88
2019-02-20T14:00:21.356Z,8.82
2019-02-20T14:02:49.659Z,8.77
2019-02-20T14:05:18.722Z,8.52
2019-02-20T14:07:47.096Z,8.98
2019-02-20T14:10:15.388Z,9.85
2019-02-20T14:12:43.686Z,8.75
2019-02-20T14:15:12.771Z,9.52
2019-02-20T14:17:41.031Z,9.10
2019-02-20T14:20:09.387Z,9.13
2019-02-20T14:22:37.771Z,9.35
2019-02-20T14:25:07.075Z,10.05
2019-02-20T14:27:34.425Z,9.65
2019-02-20T14:30:02.726Z,9.85
2019-02-20T14:32:31.797Z,10.38
2019-02-20T14:35:00.329Z,10.13
2019-02-20T14:37:29.274Z,9.80
2019-02-20T14:39:57.738Z,9.93
2019-02-20T14:42:26.137Z,10.68
2019-02-20T14:44:54.472Z,9.57
2019-02-20T14:47:23.599Z,10.07
2019-02-20T14:49:51.982Z,9.48
2019-02-20T14:52:20.348Z,9.25
2019-02-20T14:54:48.737Z,9.15
2019-02-20T14:57:19.517Z,9.63
2019-02-20T14:59:45.483Z,9.20
2019-02-20T15:02:13.947Z,9.80
2019-02-20T15:04:42.283Z,9.98
2019-02-20T15:07:11.334Z,10.43
2019-02-20T15:09:39.707Z,10.73
2019-02-20T15:12:08.126Z,10.57
2019-02-20T15:14:37.291Z,10.00
2019-02-20T15:17:05.625Z,11.05
2019-02-20T15:19:33.973Z,10.77
2019-02-20T15:22:02.326Z,10.30
2019-02-20T15:24:30.707Z,10.67
2019-02-20T15:26:58.991Z,10.75
2019-02-20T15:29:27.298Z,11.02
2019-02-20T15:31:55.591Z,10.73
2019-02-20T15:34:23.919Z,12.48
2019-02-20T15:36:52.235Z,14.45
2019-02-20T15:39:20.700Z,12.60
2019-02-20T15:41:49.806Z,11.63
2019-02-20T15:44:18.084Z,12.18
2019-02-20T15:46:46.539Z,11.27
2019-02-20T15:49:15.595Z,11.80
2019-02-20T15:51:43.941Z,11.63
2019-02-20T15:54:12.266Z,10.32
2019-02-20T15:56:40.539Z,10.23
2019-02-20T15:59:08.826Z,11.65
2019-02-20T16:01:37.132Z,12.93
2019-02-20T16:04:05.434Z,12.60
2019-02-20T16:06:33.743Z,12.57
2019-02-20T16:09:02.048Z,11.80
2019-02-20T16:11:30.552Z,12.30
2019-02-20T16:13:59.585Z,13.03
2019-02-20T16:16:28.312Z,12.77
2019-02-20T16:18:56.242Z,13.25
2019-02-20T16:21:26.043Z,12.43
2019-02-20T16:23:54.332Z,13.18
2019-02-20T16:26:22.634Z,12.23
2019-02-20T16:28:51.699Z,12.85
2019-02-20T16:31:20.071Z,13.25
2019-02-20T16:33:48.402Z,12.90
2019-02-20T16:36:16.642Z,12.50
2019-02-20T16:38:44.924Z,12.43
2019-02-20T16:41:14.090Z,12.50
2019-02-20T16:43:42.417Z,12.68
2019-02-20T16:46:11.466Z,12.32
2019-02-20T16:48:39.780Z,13.18
2019-02-20T16:51:08.934Z,12.75
2019-02-20T16:53:37.253Z,12.43
2019-02-20T16:56:06.441Z,12.70
2019-02-20T16:58:34.735Z,12.57
2019-02-20T17:01:04.333Z,12.55
2019-02-20T17:03:33.380Z,12.30
2019-02-20T17:06:01.756Z,13.30
2019-02-20T17:08:30.135Z,12.57
2019-02-20T17:10:58.519Z,13.98
2019-02-20T17:13:26.922Z,15.63
2019-02-20T17:15:55.199Z,19.30
2019-02-20T17:18:24.258Z,20.33
2019-02-20T17:20:52.540Z,24.53
2019-02-20T17:23:20.835Z,23.42
2019-02-20T17:25:49.906Z,22.10
2019-02-20T17:28:18.206Z,15.68
2019-02-20T17:30:46.608Z,17.60
2019-02-20T17:33:15.679Z,19.02
2019-02-20T17:35:44.736Z,18.73
2019-02-20T17:38:13.060Z,18.90
2019-02-20T17:40:42.107Z,16.92
2019-02-20T17:43:10.388Z,17.30
2019-02-20T17:45:38.763Z,16.80
2019-02-20T17:48:07.091Z,15.98
2019-02-20T17:50:36.135Z,16.33
2019-02-20T17:53:04.458Z,16.12
2019-02-20T17:55:33.519Z,16.35
2019-02-20T17:58:02.495Z,14.15
2019-02-20T18:00:30.779Z,14.23
2019-02-20T18:02:59.116Z,14.23
2019-02-20T18:05:27.404Z,14.65
2019-02-20T18:07:56.436Z,14.20
2019-02-20T18:10:26.343Z,17.80
2019-02-20T18:12:54.724Z,23.17
2019-02-20T18:15:23.020Z,19.40
2019-02-20T18:17:51.317Z,17.05
2019-02-20T18:20:19.638Z,15.80
2019-02-20T18:22:47.930Z,15.32
2019-02-20T18:25:16.215Z,15.18
2019-02-20T18:27:44.530Z,14.57
2019-02-20T18:30:13.688Z,14.77
2019-02-20T18:32:42.061Z,15.88
2019-02-20T18:35:11.144Z,15.20
2019-02-20T18:37:39.448Z,15.98
2019-02-20T18:40:10.603Z,17.12
2019-02-20T18:42:39.705Z,16.52
2019-02-20T18:45:07.971Z,16.03
2019-02-20T18:47:37.032Z,16.10
2019-02-20T18:50:05.390Z,15.88
2019-02-20T18:52:33.723Z,16.77
2019-02-20T18:55:05.947Z,16.90
2019-02-20T18:57:31.601Z,17.07
2019-02-20T19:00:00.652Z,16.30
2019-02-20T19:02:28.916Z,15.77
2019-02-20T19:04:57.254Z,16.37
2019-02-20T19:07:25.577Z,16.35
2019-02-20T19:09:53.953Z,16.90
2019-02-20T19:12:27.920Z,16.52
2019-02-20T19:18:07.159Z,16.77
2019-02-20T19:20:36.343Z,18.35
2019-02-20T19:23:10.369Z,21.87
2019-02-20T19:25:43.119Z,19.62
2019-02-20T19:28:18.954Z,17.12
2019-02-20T19:30:55.967Z,20.15
2019-02-20T19:36:42.457Z,18.10
2019-02-20T19:39:16.389Z,18.12
2019-02-20T19:45:02.721Z,18.25
2019-02-20T19:47:37.711Z,18.30
2019-02-20T19:50:24.377Z,18.23
2019-02-20T19:52:52.630Z,16.30
2019-02-20T19:55:24.653Z,14.90
2019-02-20T19:57:57.640Z,14.10
2019-02-20T20:00:28.881Z,14.45
2019-02-20T20:03:06.619Z,14.30
2019-02-20T20:05:39.259Z,15.45
2019-02-20T20:08:16.208Z,19.17
2019-02-20T20:11:01.056Z,16.40
2019-02-20T20:13:30.128Z,14.82
2019-02-20T20:15:58.489Z,15.10
2019-02-20T20:18:48.801Z,15.73
2019-02-20T20:21:20.839Z,17.62
2019-02-20T20:23:58.536Z,18.58
2019-02-20T20:26:50.790Z,19.10
2019-02-20T20:32:28.775Z,19.10
2019-02-20T20:35:00.600Z,19.63
2019-02-20T20:37:30.596Z,19.73
2019-02-20T20:40:09.508Z,19.67
2019-02-20T20:45:38.221Z,19.90
2019-02-20T20:48:15.306Z,20.80
2019-02-20T20:50:46.104Z,20.50
2019-02-20T20:56:20.789Z,18.80
2019-02-20T20:58:51.799Z,18.30
2019-02-20T21:01:30.792Z,17.35
2019-02-20T21:04:07.866Z,16.77
2019-02-20T21:12:49.624Z,16.65
2019-02-20T21:15:38.491Z,16.20
2019-02-20T21:18:18.410Z,16.55
2019-02-20T21:20:47.587Z,16.83
2019-02-20T21:26:33.416Z,16.70
2019-02-20T21:29:15.271Z,17.62
2019-02-20T21:31:53.753Z,18.08
2019-02-20T21:34:23.580Z,17.25
2019-02-20T21:37:01.741Z,17.73
2019-02-20T21:39:33.785Z,17.10
2019-02-20T21:42:12.639Z,17.25
2019-02-20T21:44:43.534Z,17.08
2019-02-20T21:47:16.057Z,17.67
2019-02-20T21:52:49.517Z,16.75
2019-02-20T21:58:29.336Z,17.52
2019-02-20T22:04:24.809Z,18.10
2019-02-20T22:07:04.749Z,17.33
2019-02-20T22:09:34.531Z,17.85
2019-02-20T22:12:18.609Z,18.98
2019-02-20T22:15:20.372Z,18.42
2019-02-20T22:17:52.653Z,17.47
2019-02-20T22:23:36.501Z,17.58
2019-02-20T22:26:09.477Z,20.00
2019-02-20T22:28:40.282Z,19.15
2019-02-20T22:31:22.291Z,17.85
2019-02-20T22:33:51.953Z,17.70
2019-02-20T22:36:20.283Z,17.23
2019-02-20T22:39:00.760Z,18.35
2019-02-20T22:41:41.739Z,18.02
2019-02-20T22:47:14.301Z,19.15
2019-02-20T22:49:48.076Z,18.40
2019-02-20T22:52:17.097Z,18.85
2019-02-20T22:54:55.288Z,19.37
2019-02-20T22:57:41.151Z,20.17
2019-02-20T23:00:20.489Z,20.35
2019-02-20T23:03:00.896Z,20.42
2019-02-20T23:05:47.875Z,20.23
2019-02-20T23:08:36.723Z,21.15
2019-02-20T23:11:07.527Z,20.15
2019-02-20T23:13:48.357Z,20.48
2019-02-20T23:16:16.761Z,20.05
2019-02-20T23:18:45.103Z,20.67
2019-02-20T23:21:13.392Z,20.65
2019-02-20T23:23:41.816Z,21.10
2019-02-20T23:26:10.909Z,20.60
2019-02-20T23:28:39.974Z,19.92
2019-02-20T23:31:08.332Z,20.50
2019-02-20T23:33:36.718Z,20.00
2019-02-20T23:36:04.987Z,19.50
2019-02-20T23:38:33.262Z,19.75
2019-02-20T23:41:01.637Z,20.55
2019-02-20T23:43:30.016Z,19.87
2019-02-20T23:45:58.386Z,19.85
2019-02-20T23:48:26.784Z,20.52
2019-02-20T23:50:55.051Z,20.27
2019-02-20T23:53:23.337Z,20.52
2019-02-20T23:55:51.695Z,19.73
2019-02-20T23:58:19.981Z,20.48
